East End, Ohio
Current Conditions -  °F | °C
As of 2:20 PM on Thursday 27 Nov 2014 (Local Time) from KLUK Reporting Station
Overcast Overcast  
Wind Chill: 22°   Ceiling: 2900
Heat Index: 33°   Visibility: 10mi
Dew Point: 23°   Wind: 17mph
Humidity: 66%   Direction: 270°W
Pressure: 30.31"   Gusts: NA
Location:  39.1107°N, 84.4215°W
Report Text: KLUK 271920Z 27015KT 10SM OVC029 01/M05 A3031 RMK AO2 T00061050
Loading
Personal Weather Stations






























Interactive Weather Map New forecast layout! Learn more

10-Day Weather Forecast

Advertisements
Track Severe Weather on mobile